Time;durP1;ratioP1;P1;durP2;ratioP2;P2;SDS_P1;SDS_P2;PMS_P1;PMS_P2;Temp;Humidity;BMP_temperature;BMP_pressure;BME280_temperature;BME280_humidity;BME280_pressure;Samples;Min_cycle;Max_cycle;Signal;HPM_P1;HPM_P2
2022/12/24 00:01:22;;;;;;;;;;;;;;;11.67;71.21;100557.59;5012854;28;19967;-75
2022/12/24 00:03:48;;;;;;;;;;;;;;;11.67;71.07;100565.72;4996265;28;20284;-75
2022/12/24 00:06:20;;;;;;;;;;;;;;;11.66;71.33;100570.28;5014122;28;19992;-77
2022/12/24 00:08:46;;;;;;;;;;;;;;;11.65;71.29;100568.66;5013742;28;19917;-75
2022/12/24 00:11:11;;;;;;;;;;;;;;;11.66;71.27;100561.34;5014041;28;19968;-76
2022/12/24 00:13:37;;;;;;;;;;;;;;;11.65;71.17;100571.38;5013915;28;19918;-76
2022/12/24 00:16:03;;;;;;;;;;;;;;;11.64;71.21;100566.19;5012759;28;20361;-75
2022/12/24 00:18:28;;;;;;;;;;;;;;;11.62;71.10;100566.47;5013523;28;19925;-76
2022/12/24 00:20:53;;;;;;;;;;;;;;;11.62;71.11;100576.47;5012726;28;20380;-75
2022/12/24 00:23:19;;;;;;;;;;;;;;;11.61;71.22;100567.53;5012746;28;19918;-75
2022/12/24 00:25:44;;;;;;;;;;;;;;;11.60;71.08;100576.72;5012678;28;20257;-77
2022/12/24 00:28:10;;;;;;;;;;;;;;;11.60;71.00;100578.63;5012918;28;20353;-75
2022/12/24 00:30:37;;;;;;;;;;;;;;;11.59;70.93;100585.06;5012540;28;19997;-77
2022/12/24 00:33:02;;;;;;;;;;;;;;;11.58;71.23;100578.84;5013074;28;19913;-75
2022/12/24 00:35:28;;;;;;;;;;;;;;;11.57;71.07;100590.75;5012548;28;19925;-76
2022/12/24 00:37:53;;;;;;;;;;;;;;;11.56;71.10;100588.28;5013754;28;20357;-75
2022/12/24 00:40:18;;;;;;;;;;;;;;;11.57;71.07;100592.66;5015682;28;19913;-75
2022/12/24 00:42:44;;;;;;;;;;;;;;;11.55;71.21;100594.78;5017601;28;20011;-75
2022/12/24 00:45:10;;;;;;;;;;;;;;;11.56;71.02;100604.53;5017527;28;19917;-75
2022/12/24 00:47:35;;;;;;;;;;;;;;;11.55;70.95;100603.72;5016053;28;19932;-75
2022/12/24 00:50:01;;;;;;;;;;;;;;;11.53;71.12;100608.56;4999885;28;19918;-75
2022/12/24 00:52:26;;;;;;;;;;;;;;;11.53;71.25;100616.66;5016132;28;20262;-75
2022/12/24 00:54:51;;;;;;;;;;;;;;;11.54;71.05;100612.06;5016984;28;19924;-75
2022/12/24 00:57:16;;;;;;;;;;;;;;;11.53;71.09;100624.78;5016085;28;20368;-75
2022/12/24 00:59:42;;;;;;;;;;;;;;;11.53;71.07;100615.84;5016008;28;19921;-75
2022/12/24 01:02:07;;;;;;;;;;;;;;;11.53;71.08;100624.78;4999250;28;20051;-75
2022/12/24 01:07:16;;;;;;;;;;;;;;;11.53;71.08;100624.78;5016486;28;19982;-75
2022/12/24 01:09:41;;;;;;;;;;;;;;;11.52;71.02;100616.94;5017071;28;20370;-77
2022/12/24 01:12:06;;;;;;;;;;;;;;;11.52;71.14;100625.06;4999431;28;19918;-75
2022/12/24 01:14:32;;;;;;;;;;;;;;;11.52;71.09;100635.88;5017040;28;19923;-76
2022/12/24 01:16:57;;;;;;;;;;;;;;;11.51;71.07;100629.63;4999566;28;19918;-75
2022/12/24 01:19:22;;;;;;;;;;;;;;;11.51;71.05;100640.44;5015723;28;19944;-75
2022/12/24 01:21:47;;;;;;;;;;;;;;;11.51;70.96;100650.44;5017154;28;20285;-75
2022/12/24 01:24:14;;;;;;;;;;;;;;;11.50;71.02;100649.63;5017108;28;20008;-75
2022/12/24 01:26:39;;;;;;;;;;;;;;;11.50;71.03;100643.41;5015585;28;19952;-75
2022/12/24 01:29:04;;;;;;;;;;;;;;;11.50;70.94;100640.72;5016358;28;20294;-76
2022/12/24 01:31:30;;;;;;;;;;;;;;;11.50;70.94;100652.34;5016699;28;19952;-75
2022/12/24 01:33:55;;;;;;;;;;;;;;;11.48;70.81;100649.88;5015946;28;19922;-76
2022/12/24 01:36:20;;;;;;;;;;;;;;;11.48;71.00;100658.00;5016880;28;19972;-75
2022/12/24 01:38:45;;;;;;;;;;;;;;;11.47;71.02;100655.56;5016528;28;20066;-75
2022/12/24 01:44:14;;;;;;;;;;;;;;;11.45;70.88;100663.09;5016183;28;19920;-75
2022/12/24 01:46:40;;;;;;;;;;;;;;;11.45;70.87;100669.31;5017153;28;19917;-76
2022/12/24 01:49:10;;;;;;;;;;;;;;;11.45;70.86;100668.50;5016456;28;19921;-75
2022/12/24 01:51:45;;;;;;;;;;;;;;;11.44;71.05;100669.56;5015669;28;19913;-75
2022/12/24 01:54:15;;;;;;;;;;;;;;;11.43;70.84;100682.25;5016852;28;19920;-75
2022/12/24 01:56:43;;;;;;;;;;;;;;;11.43;70.67;100673.34;5016000;28;19913;-75
2022/12/24 01:59:10;;;;;;;;;;;;;;;11.43;70.91;100676.03;5016446;28;20337;-76
2022/12/24 02:01:36;;;;;;;;;;;;;;;11.43;70.77;100681.44;5016177;28;19917;-75
2022/12/24 02:04:03;;;;;;;;;;;;;;;11.42;70.89;100694.16;5014561;28;20361;-74
2022/12/24 02:06:29;;;;;;;;;;;;;;;11.42;70.85;100688.75;5014793;28;20008;-75
2022/12/24 02:08:54;;;;;;;;;;;;;;;11.41;70.95;100695.22;5014815;28;19976;-75
2022/12/24 02:11:21;;;;;;;;;;;;;;;11.41;70.87;100697.91;5015174;28;19918;-75
2022/12/24 02:13:52;;;;;;;;;;;;;;;11.40;70.78;100690.88;5015788;28;19917;-77
2022/12/24 02:16:17;;;;;;;;;;;;;;;11.40;70.71;100698.19;5015899;28;19961;-74
2022/12/24 02:18:57;;;;;;;;;;;;;;;11.39;70.82;100693.81;5014632;28;19921;-75
2022/12/24 02:21:31;;;;;;;;;;;;;;;11.37;70.68;100699.50;5015749;28;19920;-75
2022/12/24 02:24:15;;;;;;;;;;;;;;;11.37;70.83;100702.22;5016043;28;19956;-75
2022/12/24 02:26:58;;;;;;;;;;;;;;;11.36;70.79;100705.97;5015772;28;19920;-76
2022/12/24 02:29:59;;;;;;;;;;;;;;;11.35;70.97;100709.75;5014186;28;20013;-75
2022/12/24 02:32:32;;;;;;;;;;;;;;;11.35;70.79;100712.44;4974417;28;19937;-75
2022/12/24 02:35:04;;;;;;;;;;;;;;;11.35;70.84;100708.94;5009017;28;20325;-75
2022/12/24 02:37:37;;;;;;;;;;;;;;;11.34;70.87;100701.88;5015529;28;19914;-75
2022/12/24 02:40:05;;;;;;;;;;;;;;;11.33;70.93;100709.16;5014555;28;19913;-75
2022/12/24 02:42:35;;;;;;;;;;;;;;;11.34;70.90;100699.16;5015892;28;20004;-75
2022/12/24 02:45:01;;;;;;;;;;;;;;;11.33;70.77;100711.06;5014036;28;20285;-76
2022/12/24 02:47:27;;;;;;;;;;;;;;;11.34;70.82;100715.38;5015129;28;19917;-75
2022/12/24 02:49:53;;;;;;;;;;;;;;;11.33;70.94;100711.88;5013872;28;20281;-75
2022/12/24 02:52:27;;;;;;;;;;;;;;;11.32;70.86;100712.94;5013964;28;19924;-75
2022/12/24 02:54:52;;;;;;;;;;;;;;;11.32;70.84;100717.56;5015127;28;19913;-75
2022/12/24 02:57:26;;;;;;;;;;;;;;;11.31;70.86;100713.19;5015138;28;20083;-75
2022/12/24 02:59:57;;;;;;;;;;;;;;;11.32;71.01;100725.66;5014824;28;19913;-77
2022/12/24 03:02:34;;;;;;;;;;;;;;;11.31;70.82;100724.81;5014897;28;19981;-77
2022/12/24 03:05:18;;;;;;;;;;;;;;;11.31;70.86;100734.81;5015471;28;19913;-74
2022/12/24 03:07:51;;;;;;;;;;;;;;;11.30;70.94;100730.50;5015536;28;19960;-74
2022/12/24 03:10:19;;;;;;;;;;;;;;;11.29;70.65;100732.38;5014748;28;19920;-74
2022/12/24 03:12:57;;;;;;;;;;;;;;;11.30;70.87;100725.09;5014496;28;19920;-74
2022/12/24 03:15:24;;;;;;;;;;;;;;;11.27;70.81;100731.81;5013877;28;19913;-75
2022/12/24 03:17:51;;;;;;;;;;;;;;;11.29;70.96;100728.84;5013820;28;20277;-74
2022/12/24 03:20:19;;;;;;;;;;;;;;;11.28;70.83;100725.31;5013427;28;20234;-74
2022/12/24 03:22:45;;;;;;;;;;;;;;;11.27;70.79;100726.41;5014993;28;20354;-74
2022/12/24 03:25:10;;;;;;;;;;;;;;;11.27;70.90;100727.22;5014575;28;19913;-74
2022/12/24 03:27:37;;;;;;;;;;;;;;;11.27;70.89;100738.03;4996703;28;19928;-74
2022/12/24 03:30:07;;;;;;;;;;;;;;;11.28;70.87;100741.53;5014530;28;20271;-76
2022/12/24 03:32:32;;;;;;;;;;;;;;;11.29;70.92;100742.34;5014449;28;19914;-74
2022/12/24 03:34:57;;;;;;;;;;;;;;;11.27;70.96;100738.03;5013185;28;20000;-75
2022/12/24 03:37:24;;;;;;;;;;;;;;;11.27;70.89;100748.84;5014233;28;19917;-74
2022/12/24 03:39:49;;;;;;;;;;;;;;;11.27;71.03;100746.13;5014471;28;20433;-75
2022/12/24 03:42:14;;;;;;;;;;;;;;;11.27;71.04;100746.13;5014421;28;19944;-75
2022/12/24 03:44:40;;;;;;;;;;;;;;;11.27;70.79;100746.13;5029840;28;19921;-76
2022/12/24 03:47:05;;;;;;;;;;;;;;;11.27;71.00;100748.03;5013152;28;19933;-75
2022/12/24 03:49:30;;;;;;;;;;;;;;;11.27;70.79;100759.66;5012786;28;20332;-75
2022/12/24 03:51:55;;;;;;;;;;;;;;;11.27;71.01;100759.66;5013905;28;19917;-77
2022/12/24 03:54:21;;;;;;;;;;;;;;;11.27;71.12;100762.38;5014120;28;19918;-74
2022/12/24 03:56:46;;;;;;;;;;;;;;;11.28;71.12;100760.47;5013178;28;19917;-74
2022/12/24 03:59:11;;;;;;;;;;;;;;;11.26;71.09;100755.34;5012975;28;20403;-74
2022/12/24 04:01:36;;;;;;;;;;;;;;;11.28;70.97;100768.59;5012843;28;19918;-75
2022/12/24 04:04:02;;;;;;;;;;;;;;;11.27;70.90;100773.19;5014610;28;19920;-75
2022/12/24 04:06:27;;;;;;;;;;;;;;;11.27;71.06;100765.06;5014334;28;19924;-74
2022/12/24 04:08:52;;;;;;;;;;;;;;;11.27;70.92;100770.47;5013386;28;20345;-75
2022/12/24 04:11:18;;;;;;;;;;;;;;;11.27;70.97;100777.78;5013130;28;19967;-75
2022/12/24 04:13:43;;;;;;;;;;;;;;;11.28;70.99;100782.09;5014000;28;20312;-75
2022/12/24 04:16:10;;;;;;;;;;;;;;;11.27;70.93;100775.88;5017820;28;19924;-74
2022/12/24 04:18:36;;;;;;;;;;;;;;;11.27;71.09;100770.47;5018458;28;20004;-75
2022/12/24 04:21:01;;;;;;;;;;;;;;;11.27;70.98;100773.19;5017786;28;19928;-75
2022/12/24 04:23:29;;;;;;;;;;;;;;;11.27;70.80;100772.38;5017969;28;19913;-74
2022/12/24 04:25:54;;;;;;;;;;;;;;;11.27;70.94;100775.06;5017001;28;19967;-75
2022/12/24 04:28:19;;;;;;;;;;;;;;;11.27;71.01;100777.78;4999891;28;20404;-74
2022/12/24 04:30:45;;;;;;;;;;;;;;;11.27;70.97;100778.59;5016572;28;19921;-74
2022/12/24 04:33:10;;;;;;;;;;;;;;;11.26;71.18;100779.66;5016563;28;20009;-75
2022/12/24 04:35:40;;;;;;;;;;;;;;;11.27;70.87;100785.88;5016384;28;20324;-75
2022/12/24 04:38:05;;;;;;;;;;;;;;;11.26;70.78;100779.66;5016070;28;20297;-75
2022/12/24 04:40:30;;;;;;;;;;;;;;;11.27;71.11;100789.41;5017777;28;19913;-74
2022/12/24 04:42:56;;;;;;;;;;;;;;;11.28;70.95;100787.50;4999979;28;20059;-75
2022/12/24 04:45:21;;;;;;;;;;;;;;;11.27;70.87;100792.09;5000360;28;20353;-74
2022/12/24 04:47:46;;;;;;;;;;;;;;;11.27;71.00;100781.28;5016267;28;19968;-74
2022/12/24 04:50:11;;;;;;;;;;;;;;;11.27;71.02;100784.00;5017702;28;19921;-75
2022/12/24 04:52:37;;;;;;;;;;;;;;;11.28;70.83;100792.91;5017920;28;19914;-75
2022/12/24 04:55:02;;;;;;;;;;;;;;;11.27;70.98;100792.09;5017613;28;19918;-77
2022/12/24 04:57:30;;;;;;;;;;;;;;;11.27;70.95;100796.69;5017667;28;19917;-75
2022/12/24 04:59:55;;;;;;;;;;;;;;;11.26;71.04;100790.47;5017329;28;19920;-75
2022/12/24 05:02:20;;;;;;;;;;;;;;;11.28;70.91;100801.03;5017207;28;19913;-74
2022/12/24 05:04:45;;;;;;;;;;;;;;;11.27;70.98;100794.81;5017287;28;19921;-75
2022/12/24 05:07:11;;;;;;;;;;;;;;;11.28;71.01;100811.84;5017126;28;19925;-75
2022/12/24 05:09:36;;;;;;;;;;;;;;;11.28;71.00;100806.44;5017455;28;19921;-75
2022/12/24 05:12:01;;;;;;;;;;;;;;;11.27;70.77;100802.94;5016229;28;20019;-76
2022/12/24 05:14:26;;;;;;;;;;;;;;;11.26;71.06;100806.72;4999766;28;20380;-75
2022/12/24 05:16:52;;;;;;;;;;;;;;;11.28;71.01;100803.75;5015844;28;19922;-76
2022/12/24 05:19:17;;;;;;;;;;;;;;;11.27;70.93;100799.41;5016180;28;19918;-75
2022/12/24 05:21:42;;;;;;;;;;;;;;;11.27;70.87;100799.41;5016009;28;20392;-76
2022/12/24 05:27:04;;;;;;;;;;;;;;;11.27;71.03;100802.94;4980164;28;19949;-77
2022/12/24 05:29:29;;;;;;;;;;;;;;;11.26;71.03;100804.00;5015779;28;20427;-75
2022/12/24 05:31:54;;;;;;;;;;;;;;;11.27;71.09;100805.63;5016955;28;19917;-77
2022/12/24 05:34:19;;;;;;;;;;;;;;;11.27;71.21;100802.94;5015488;28;19920;-76
2022/12/24 05:36:45;;;;;;;;;;;;;;;11.27;71.01;100802.94;5015371;28;20370;-75
2022/12/24 05:39:14;;;;;;;;;;;;;;;11.27;71.03;100816.44;5016527;28;20007;-76
2022/12/24 05:41:39;;;;;;;;;;;;;;;11.27;70.98;100816.44;5015290;28;20012;-76
2022/12/24 05:44:05;;;;;;;;;;;;;;;11.27;71.14;100821.03;4998882;28;19979;-78
2022/12/24 05:46:30;;;;;;;;;;;;;;;11.26;70.97;100831.03;4999165;28;20358;-76
2022/12/24 05:48:55;;;;;;;;;;;;;;;11.27;71.10;100834.56;5015286;28;19972;-76
2022/12/24 05:51:21;;;;;;;;;;;;;;;11.27;71.25;100831.84;5015168;28;19921;-76
2022/12/24 05:53:47;;;;;;;;;;;;;;;11.27;71.16;100826.44;5016100;28;19926;-78
2022/12/24 05:56:17;;;;;;;;;;;;;;;11.26;71.04;100835.59;5015259;28;19913;-77
2022/12/24 05:58:43;;;;;;;;;;;;;;;11.26;71.02;100838.31;5015348;28;19914;-77
2022/12/24 06:01:08;;;;;;;;;;;;;;;11.25;71.04;100848.31;5015881;28;19921;-79
2022/12/24 06:03:34;;;;;;;;;;;;;;;11.25;70.98;100852.91;5016228;28;19913;-76
2022/12/24 06:05:59;;;;;;;;;;;;;;;11.24;71.11;100849.38;5016091;28;20022;-75
2022/12/24 06:08:25;;;;;;;;;;;;;;;11.25;71.19;100850.19;5015636;28;19919;-76
2022/12/24 06:10:58;;;;;;;;;;;;;;;11.24;71.02;100851.28;5016432;28;20423;-76
2022/12/24 06:13:24;;;;;;;;;;;;;;;11.24;71.04;100841.28;5015851;28;19920;-76
2022/12/24 06:15:49;;;;;;;;;;;;;;;11.23;70.94;100842.31;5015946;28;19914;-76
2022/12/24 06:18:14;;;;;;;;;;;;;;;11.24;71.06;100852.09;5015097;28;19924;-76
2022/12/24 06:20:39;;;;;;;;;;;;;;;11.24;70.95;100854.78;4998748;28;19936;-76
2022/12/24 06:23:05;;;;;;;;;;;;;;;11.25;71.11;100861.03;5014901;28;19917;-76
2022/12/24 06:25:30;;;;;;;;;;;;;;;11.24;71.13;100857.50;5015629;28;20388;-76
2022/12/24 06:27:55;;;;;;;;;;;;;;;11.24;71.19;100862.91;5014043;28;19921;-76
2022/12/24 06:30:20;;;;;;;;;;;;;;;11.24;71.08;100878.31;5014118;28;19917;-77
2022/12/24 06:32:45;;;;;;;;;;;;;;;11.24;71.07;100876.44;5015550;28;20386;-76
2022/12/24 06:35:11;;;;;;;;;;;;;;;11.23;71.09;100872.06;5015243;28;20454;-78
2022/12/24 06:37:36;;;;;;;;;;;;;;;11.23;70.95;100879.38;4997735;28;19928;-76
2022/12/24 06:40:01;;;;;;;;;;;;;;;11.23;70.86;100880.19;5014735;28;20003;-76
2022/12/24 06:42:26;;;;;;;;;;;;;;;11.22;71.04;100873.16;5015363;28;19918;-77
2022/12/24 06:44:52;;;;;;;;;;;;;;;11.21;71.10;100871.50;5014851;28;19923;-76
2022/12/24 06:47:17;;;;;;;;;;;;;;;11.22;70.98;100869.63;5013704;28;19969;-76
2022/12/24 06:49:42;;;;;;;;;;;;;;;11.23;71.06;100872.06;5014074;28;19918;-76
2022/12/24 06:52:07;;;;;;;;;;;;;;;11.22;71.00;100878.56;5015276;28;19917;-76
2022/12/24 06:54:33;;;;;;;;;;;;;;;11.22;71.03;100880.44;5014166;28;20272;-76
2022/12/24 06:56:58;;;;;;;;;;;;;;;11.22;71.04;100881.25;5013915;28;20347;-76
2022/12/24 06:59:23;;;;;;;;;;;;;;;11.21;70.99;100885.03;5014775;28;19944;-76
2022/12/24 07:01:48;;;;;;;;;;;;;;;11.21;71.01;100882.34;5015081;28;19963;-77
2022/12/24 07:04:14;;;;;;;;;;;;;;;11.20;71.03;100880.66;5014733;28;19918;-78
2022/12/24 07:06:40;;;;;;;;;;;;;;;11.19;71.13;100881.75;4997886;28;19918;-76
2022/12/24 07:09:06;;;;;;;;;;;;;;;11.20;70.93;100896.91;5015410;28;20012;-76
2022/12/24 07:11:31;;;;;;;;;;;;;;;11.20;70.96;100885.25;4997312;28;20006;-76
2022/12/24 07:13:56;;;;;;;;;;;;;;;11.20;71.04;100899.59;5014818;28;19967;-76
2022/12/24 07:16:21;;;;;;;;;;;;;;;11.19;71.19;100889.84;5014157;28;19956;-77
2022/12/24 07:18:47;;;;;;;;;;;;;;;11.20;71.03;100899.59;5013165;28;20445;-77
2022/12/24 07:21:12;;;;;;;;;;;;;;;11.20;71.09;100910.41;5014751;28;19924;-76
2022/12/24 07:23:37;;;;;;;;;;;;;;;11.20;70.98;100906.91;5015248;28;19917;-76
2022/12/24 07:26:03;;;;;;;;;;;;;;;11.19;71.04;100914.19;5013384;28;20344;-76
2022/12/24 07:28:29;;;;;;;;;;;;;;;11.20;71.14;100915.00;5014098;28;19956;-76
2022/12/24 07:30:57;;;;;;;;;;;;;;;11.19;71.04;100925.00;5013623;28;19924;-76
2022/12/24 07:33:23;;;;;;;;;;;;;;;11.18;71.08;100928.75;5013915;28;19921;-75
2022/12/24 07:35:48;;;;;;;;;;;;;;;11.19;71.09;100933.13;5013209;28;19914;-76
2022/12/24 07:38:14;;;;;;;;;;;;;;;11.18;71.05;100938.75;5014514;28;19924;-76
2022/12/24 07:40:39;;;;;;;;;;;;;;;11.17;70.79;100937.94;5014329;28;19917;-76
2022/12/24 07:43:04;;;;;;;;;;;;;;;11.17;71.09;100935.25;5014433;28;20020;-75
2022/12/24 07:45:29;;;;;;;;;;;;;;;11.18;71.09;100941.47;5014632;28;20358;-75
2022/12/24 07:47:55;;;;;;;;;;;;;;;11.17;70.76;100943.34;5013820;28;19957;-75
2022/12/24 07:50:20;;;;;;;;;;;;;;;11.16;71.08;100955.25;5014262;28;20285;-77
2022/12/24 07:52:45;;;;;;;;;;;;;;;11.17;70.86;100967.69;5013868;28;19940;-75
2022/12/24 07:55:10;;;;;;;;;;;;;;;11.16;71.00;100952.53;5013269;28;20008;-75
2022/12/24 07:57:36;;;;;;;;;;;;;;;11.16;71.01;100965.22;5012550;28;20360;-75
2022/12/24 08:00:01;;;;;;;;;;;;;;;11.15;71.13;100964.41;5014161;28;19917;-75
2022/12/24 08:02:26;;;;;;;;;;;;;;;11.14;71.17;100973.56;5012680;28;19967;-75
2022/12/24 08:04:51;;;;;;;;;;;;;;;11.15;70.98;100979.81;5013491;28;19917;-74
2022/12/24 08:07:17;;;;;;;;;;;;;;;11.13;71.03;100988.13;5013208;28;19925;-74
2022/12/24 08:09:44;;;;;;;;;;;;;;;11.14;70.99;100983.59;5012590;28;19925;-74
2022/12/24 08:12:09;;;;;;;;;;;;;;;11.13;70.96;100995.44;5014039;28;19967;-75
2022/12/24 08:14:35;;;;;;;;;;;;;;;11.12;71.04;101001.91;5013704;28;19975;-74
2022/12/24 08:17:00;;;;;;;;;;;;;;;11.13;71.03;101006.25;5014021;28;19914;-74
2022/12/24 08:19:25;;;;;;;;;;;;;;;11.13;71.00;101007.06;5013892;28;19913;-74
2022/12/24 08:21:50;;;;;;;;;;;;;;;11.13;70.97;101006.25;5013643;28;19917;-75
2022/12/24 08:24:16;;;;;;;;;;;;;;;11.12;71.03;101010.84;5012814;28;19921;-76
2022/12/24 08:26:41;;;;;;;;;;;;;;;11.13;70.93;101017.06;5014329;28;19913;-76
2022/12/24 08:29:06;;;;;;;;;;;;;;;11.12;70.96;101010.03;5014411;28;20312;-76
2022/12/24 08:31:35;;;;;;;;;;;;;;;11.13;71.00;101023.28;5014338;28;19964;-75
2022/12/24 08:34:02;;;;;;;;;;;;;;;11.13;70.94;101017.88;5014077;28;19913;-77
2022/12/24 08:36:27;;;;;;;;;;;;;;;11.11;71.03;101020.00;5012529;28;20381;-75
2022/12/24 08:38:52;;;;;;;;;;;;;;;11.13;70.82;101027.88;5012791;28;20025;-75
2022/12/24 08:41:18;;;;;;;;;;;;;;;11.12;70.95;101023.53;5013528;28;19937;-75
2022/12/24 08:43:43;;;;;;;;;;;;;;;11.12;70.99;101023.53;5012607;28;19996;-75
2022/12/24 08:46:08;;;;;;;;;;;;;;;11.12;70.95;101024.34;5012507;28;19964;-75
2022/12/24 08:48:35;;;;;;;;;;;;;;;11.12;71.17;101031.66;5012528;28;20284;-76
2022/12/24 08:51:04;;;;;;;;;;;;;;;11.12;71.03;101039.78;5014168;28;20345;-75
2022/12/24 08:53:29;;;;;;;;;;;;;;;11.12;71.00;101028.94;5013660;28;20012;-75
2022/12/24 08:56:00;;;;;;;;;;;;;;;11.12;71.22;101028.94;5013123;28;20048;-75
2022/12/24 08:58:25;;;;;;;;;;;;;;;11.11;71.13;101038.91;5013888;28;20280;-77
2022/12/24 09:00:50;;;;;;;;;;;;;;;11.10;71.21;101045.41;5013948;28;20012;-75
2022/12/24 09:03:16;;;;;;;;;;;;;;;11.11;71.07;101043.50;5017246;28;20254;-76
2022/12/24 09:05:41;;;;;;;;;;;;;;;11.10;71.08;101045.41;5017039;28;19928;-74
2022/12/24 09:08:06;;;;;;;;;;;;;;;11.10;70.91;101058.09;5017184;28;20007;-75
2022/12/24 09:10:31;;;;;;;;;;;;;;;11.10;71.03;101067.03;5015742;28;19922;-75
2022/12/24 09:12:57;;;;;;;;;;;;;;;11.10;71.21;101058.09;5016869;28;19952;-76
2022/12/24 09:15:22;;;;;;;;;;;;;;;11.10;71.05;101061.63;5017065;28;20373;-76
2022/12/24 09:17:47;;;;;;;;;;;;;;;11.10;71.09;101085.13;5016948;28;19924;-75
2022/12/24 09:20:12;;;;;;;;;;;;;;;11.09;71.03;101087.03;5015920;28;19914;-74
2022/12/24 09:22:38;;;;;;;;;;;;;;;11.10;71.00;101098.66;5016794;28;19933;-75
2022/12/24 09:25:05;;;;;;;;;;;;;;;11.10;71.08;101094.06;4999358;28;19968;-71
2022/12/24 09:27:30;;;;;;;;;;;;;;;11.11;71.19;101094.88;5016482;28;20297;-74
2022/12/24 09:29:56;;;;;;;;;;;;;;;11.12;71.27;101097.34;5015134;28;19914;-73
2022/12/24 09:32:21;;;;;;;;;;;;;;;11.12;71.09;101105.47;4999804;28;19952;-73
2022/12/24 09:34:46;;;;;;;;;;;;;;;11.13;71.21;101099.00;5015511;28;20274;-75
2022/12/24 09:37:11;;;;;;;;;;;;;;;11.13;71.20;101099.00;5015330;28;19969;-75
2022/12/24 09:39:37;;;;;;;;;;;;;;;11.13;71.04;101100.88;5016503;28;20048;-75
2022/12/24 09:42:05;;;;;;;;;;;;;;;11.12;71.11;101097.34;5015404;28;19924;-75
2022/12/24 09:44:37;;;;;;;;;;;;;;;11.11;71.22;101109.22;5016601;28;19917;-75
2022/12/24 09:47:05;;;;;;;;;;;;;;;11.11;71.22;101117.31;5016740;28;20304;-75
2022/12/24 09:49:37;;;;;;;;;;;;;;;11.12;70.98;101119.00;5017214;28;19920;-78
2022/12/24 09:52:16;;;;;;;;;;;;;;;11.11;71.07;101127.31;5016022;28;19913;-75
2022/12/24 09:54:46;;;;;;;;;;;;;;;11.11;71.15;101130.03;5016393;28;19913;-75
2022/12/24 09:57:14;;;;;;;;;;;;;;;11.11;71.05;101136.25;5016623;28;20011;-74
2022/12/24 09:59:41;;;;;;;;;;;;;;;11.11;71.05;101147.06;5016086;28;19920;-75
2022/12/24 10:02:12;;;;;;;;;;;;;;;11.12;71.13;101140.63;5014702;28;20382;-74
2022/12/24 10:04:37;;;;;;;;;;;;;;;11.12;70.95;101142.50;5014469;28;19917;-75
2022/12/24 10:07:24;;;;;;;;;;;;;;;11.12;71.05;101139.81;5014647;28;19994;-75
2022/12/24 10:09:58;;;;;;;;;;;;;;;11.12;71.06;101146.03;5014502;28;19963;-75
2022/12/24 10:12:37;;;;;;;;;;;;;;;11.12;71.05;101146.03;5013640;28;19913;-74
2022/12/24 10:15:09;;;;;;;;;;;;;;;11.13;71.14;101138.72;5015187;28;19914;-75
2022/12/24 10:17:45;;;;;;;;;;;;;;;11.13;71.03;101136.03;5015858;28;19920;-75
2022/12/24 10:20:10;;;;;;;;;;;;;;;11.13;70.94;101127.91;5014939;28;19995;-75
2022/12/24 10:22:35;;;;;;;;;;;;;;;11.13;71.21;101126.03;5014948;28;19994;-78
2022/12/24 10:25:13;;;;;;;;;;;;;;;11.13;71.04;101134.13;5014031;28;19913;-75
2022/12/24 10:27:39;;;;;;;;;;;;;;;11.13;71.05;101136.84;5014302;28;19985;-75
2022/12/24 10:30:18;;;;;;;;;;;;;;;11.13;70.97;101136.84;5015825;28;19925;-75
2022/12/24 10:32:45;;;;;;;;;;;;;;;11.14;71.03;101135.81;5015386;28;19936;-75
2022/12/24 10:35:14;;;;;;;;;;;;;;;11.14;71.02;101143.09;5015328;28;20350;-75
2022/12/24 10:37:39;;;;;;;;;;;;;;;11.14;71.00;101151.22;5015668;28;19913;-75
2022/12/24 10:40:12;;;;;;;;;;;;;;;11.15;70.92;101150.94;5015098;28;19925;-75
2022/12/24 10:42:41;;;;;;;;;;;;;;;11.15;71.04;101152.84;5014171;28;19920;-76
2022/12/24 10:45:12;;;;;;;;;;;;;;;11.15;70.95;101150.94;5013953;28;19921;-76
2022/12/24 10:47:39;;;;;;;;;;;;;;;11.16;71.13;101152.63;5013645;28;19918;-73
2022/12/24 10:50:23;;;;;;;;;;;;;;;11.18;71.30;101147.78;5014465;28;19917;-79
2022/12/24 10:52:50;;;;;;;;;;;;;;;11.20;70.90;101142.94;5014932;28;20055;-81
2022/12/24 10:55:15;;;;;;;;;;;;;;;11.23;71.10;101152.47;5013712;28;19914;-76
2022/12/24 10:57:41;;;;;;;;;;;;;;;11.23;71.00;101144.34;5014688;28;19921;-80
2022/12/24 11:00:17;;;;;;;;;;;;;;;11.24;71.18;101135.22;5014820;28;19979;-77
2022/12/24 11:02:43;;;;;;;;;;;;;;;11.25;70.89;101153.06;5015414;28;19920;-76
2022/12/24 11:05:26;;;;;;;;;;;;;;;11.26;71.11;101149.28;5013683;28;19917;-77
2022/12/24 11:07:58;;;;;;;;;;;;;;;11.25;71.11;101153.06;5014565;28;19913;-77
2022/12/24 11:10:24;;;;;;;;;;;;;;;11.26;71.02;101162.81;5014739;28;20365;-77
2022/12/24 11:12:49;;;;;;;;;;;;;;;11.27;71.17;101159.88;5014365;28;19967;-77
2022/12/24 11:15:16;;;;;;;;;;;;;;;11.29;71.15;101153.41;5013414;28;20012;-79
2022/12/24 11:17:42;;;;;;;;;;;;;;;11.30;71.20;101155.06;5013249;28;19913;-77
2022/12/24 11:20:16;;;;;;;;;;;;;;;11.29;71.10;101156.94;5013126;28;20388;-77
2022/12/24 11:22:47;;;;;;;;;;;;;;;11.30;71.21;101147.75;5014635;28;19928;-78
2022/12/24 11:25:21;;;;;;;;;;;;;;;11.32;71.17;101171.88;5014417;28;20365;-77
2022/12/24 11:27:49;;;;;;;;;;;;;;;11.32;71.05;101169.19;5013146;28;20006;-77
2022/12/24 11:30:14;;;;;;;;;;;;;;;11.32;71.21;101166.47;5013647;28;19924;-78
2022/12/24 11:32:40;;;;;;;;;;;;;;;11.33;71.23;101168.09;5014242;28;19913;-77
2022/12/24 11:35:07;;;;;;;;;;;;;;;11.33;71.20;101168.09;5013288;28;19920;-77
2022/12/24 11:37:32;;;;;;;;;;;;;;;11.33;71.28;101166.22;5014620;28;19913;-76
2022/12/24 11:40:00;;;;;;;;;;;;;;;11.34;70.96;101175.16;5013209;28;19968;-76
2022/12/24 11:42:33;;;;;;;;;;;;;;;11.35;71.20;101174.09;5013934;28;19913;-77
2022/12/24 11:45:00;;;;;;;;;;;;;;;11.36;71.23;101184.66;5014076;28;19913;-77
2022/12/24 11:47:33;;;;;;;;;;;;;;;11.36;71.02;101179.25;5012999;28;20355;-77
2022/12/24 11:50:17;;;;;;;;;;;;;;;11.37;71.06;101177.41;5029111;28;19917;-76
2022/12/24 11:52:44;;;;;;;;;;;;;;;11.38;71.10;101181.72;5013832;28;19913;-76
2022/12/24 11:55:27;;;;;;;;;;;;;;;11.38;71.03;101185.25;5013977;28;19913;-76
2022/12/24 11:57:59;;;;;;;;;;;;;;;11.39;71.12;101173.41;5014111;28;19913;-76
2022/12/24 12:00:25;;;;;;;;;;;;;;;11.40;71.10;101176.91;5012901;28;20235;-76
2022/12/24 12:02:51;;;;;;;;;;;;;;;11.40;71.00;101176.91;5014035;28;19952;-75
2022/12/24 12:05:18;;;;;;;;;;;;;;;11.41;71.00;101178.56;5012689;28;19964;-75
2022/12/24 12:07:46;;;;;;;;;;;;;;;11.41;70.88;101176.66;5012961;28;20365;-76
2022/12/24 12:10:17;;;;;;;;;;;;;;;11.42;71.06;101182.91;5013867;28;19963;-78
2022/12/24 12:12:49;;;;;;;;;;;;;;;11.43;70.98;101182.66;5013766;28;19963;-78
2022/12/24 12:15:31;;;;;;;;;;;;;;;11.43;71.04;101187.25;5014035;28;20284;-76
2022/12/24 12:18:02;;;;;;;;;;;;;;;11.44;70.99;101189.75;5014367;28;19917;-78
2022/12/24 12:20:31;;;;;;;;;;;;;;;11.45;71.02;101198.66;5014007;28;19921;-78
2022/12/24 12:22:59;;;;;;;;;;;;;;;11.45;71.01;101198.66;5013330;28;19913;-78
2022/12/24 12:25:27;;;;;;;;;;;;;;;11.46;70.84;101203.84;5012487;28;19913;-80
2022/12/24 12:27:54;;;;;;;;;;;;;;;11.47;70.80;101216.31;5013593;28;19952;-78
2022/12/24 12:30:20;;;;;;;;;;;;;;;11.47;70.91;101202.78;5013189;28;20338;-77
2022/12/24 12:32:54;;;;;;;;;;;;;;;11.48;70.93;101204.41;5013468;28;19921;-78
2022/12/24 12:35:34;;;;;;;;;;;;;;;11.48;70.86;101204.41;5014051;28;19913;-78
2022/12/24 12:38:00;;;;;;;;;;;;;;;11.49;70.94;101199.84;5016032;28;19920;-78
2022/12/24 12:40:33;;;;;;;;;;;;;;;11.51;70.95;101205.81;5016115;28;19913;-77
2022/12/24 12:43:07;;;;;;;;;;;;;;;11.52;71.04;101209.38;5017657;28;19914;-76
2022/12/24 12:45:54;;;;;;;;;;;;;;;11.52;70.82;101204.78;5018015;28;20341;-77